Time;durP1;ratioP1;P1;durP2;ratioP2;P2;SDS_P1;SDS_P2;PMS_P1;PMS_P2;Temp;Humidity;BMP_temperature;BMP_pressure;BME280_temperature;BME280_humidity;BME280_pressure;Samples;Min_cycle;Max_cycle;Signal;HPM_P1;HPM_P2
2021/08/12 00:01:12;;;;;;;8.70;5.40;;;;;;;;;;5072923;28;20532;-74
2021/08/12 00:03:39;;;;;;;7.47;5.47;;;;;;;;;;5072891;28;20053;-74
2021/08/12 00:06:06;;;;;;;7.95;5.78;;;;;;;;;;5071932;28;20413;-74
2021/08/12 00:08:33;;;;;;;11.95;6.30;;;;;;;;;;5072913;28;20052;-74
2021/08/12 00:11:01;;;;;;;7.70;5.93;;;;;;;;;;5072367;28;20520;-74
2021/08/12 00:13:28;;;;;;;10.70;5.60;;;;;;;;;;5072828;28;20109;-75
2021/08/12 00:15:55;;;;;;;9.27;5.13;;;;;;;;;;5072778;28;20063;-75
2021/08/12 00:18:22;;;;;;;9.25;6.05;;;;;;;;;;5074380;28;20060;-75
2021/08/12 00:20:48;;;;;;;8.48;6.28;;;;;;;;;;5072996;28;20051;-76
2021/08/12 00:23:15;;;;;;;11.20;6.05;;;;;;;;;;5073471;28;20059;-76
2021/08/12 00:25:43;;;;;;;7.80;6.43;;;;;;;;;;5072301;28;20059;-76
2021/08/12 00:28:11;;;;;;;8.65;5.90;;;;;;;;;;5073121;28;20044;-75
2021/08/12 00:30:38;;;;;;;7.53;5.75;;;;;;;;;;5072627;28;20052;-75
2021/08/12 00:33:05;;;;;;;10.77;6.57;;;;;;;;;;5069761;28;20129;-76
2021/08/12 00:35:32;;;;;;;11.68;6.13;;;;;;;;;;5056947;28;20048;-76
2021/08/12 00:37:59;;;;;;;8.88;6.25;;;;;;;;;;5067898;28;20063;-76
2021/08/12 00:40:28;;;;;;;8.25;5.70;;;;;;;;;;5079922;28;20402;-77
2021/08/12 00:42:55;;;;;;;11.70;5.90;;;;;;;;;;5092076;28;20056;-76
2021/08/12 00:45:24;;;;;;;9.57;6.32;;;;;;;;;;5093226;28;20048;-76
2021/08/12 00:47:50;;;;;;;9.05;5.65;;;;;;;;;;5093567;28;20052;-76
2021/08/12 00:50:19;;;;;;;10.77;6.45;;;;;;;;;;5094037;28;20101;-76
2021/08/12 00:52:46;;;;;;;7.82;6.07;;;;;;;;;;5093525;28;20052;-75
2021/08/12 00:55:13;;;;;;;9.73;6.30;;;;;;;;;;5093395;28;20051;-76
2021/08/12 00:57:40;;;;;;;9.77;5.90;;;;;;;;;;5093543;28;20122;-75
2021/08/12 01:00:08;;;;;;;7.22;5.22;;;;;;;;;;5093312;28;20048;-75
2021/08/12 01:02:36;;;;;;;12.75;6.47;;;;;;;;;;5078468;28;20048;-75
2021/08/12 01:05:05;;;;;;;9.82;6.22;;;;;;;;;;5072146;28;20053;-76
2021/08/12 01:07:44;;;;;;;12.27;6.07;;;;;;;;;;5072511;28;20055;-75
2021/08/12 01:10:18;;;;;;;9.82;6.28;;;;;;;;;;5072591;28;20044;-76
2021/08/12 01:12:53;;;;;;;9.32;5.68;;;;;;;;;;5072235;28;20063;-76
2021/08/12 01:15:26;;;;;;;9.75;6.20;;;;;;;;;;5071794;28;20048;-74
2021/08/12 01:18:01;;;;;;;7.60;5.68;;;;;;;;;;5072547;28;20049;-75
2021/08/12 01:21:06;;;;;;;11.50;6.13;;;;;;;;;;5073813;28;20067;-75
2021/08/12 01:23:34;;;;;;;8.43;5.75;;;;;;;;;;5072778;28;20052;-76
2021/08/12 01:26:02;;;;;;;9.32;6.05;;;;;;;;;;5072321;28;20131;-76
2021/08/12 01:29:22;;;;;;;6.95;5.70;;;;;;;;;;5072027;28;20059;-75
2021/08/12 01:31:58;;;;;;;8.43;5.85;;;;;;;;;;5069497;28;20478;-76
2021/08/12 01:34:37;;;;;;;7.68;5.40;;;;;;;;;;5072080;28;20097;-75
2021/08/12 01:37:05;;;;;;;10.37;5.47;;;;;;;;;;5071694;28;20044;-75
2021/08/12 01:39:33;;;;;;;8.00;5.70;;;;;;;;;;5071590;28;20044;-75
2021/08/12 01:42:00;;;;;;;7.53;6.28;;;;;;;;;;5071377;28;20098;-75
2021/08/12 01:44:28;;;;;;;10.27;6.05;;;;;;;;;;5073501;28;20040;-75
2021/08/12 01:46:55;;;;;;;11.38;6.72;;;;;;;;;;5074999;28;20121;-75
2021/08/12 01:49:23;;;;;;;9.27;5.65;;;;;;;;;;5075607;28;20102;-75
2021/08/12 01:51:50;;;;;;;9.70;6.00;;;;;;;;;;5075744;28;20094;-75
2021/08/12 01:54:19;;;;;;;7.55;6.03;;;;;;;;;;5075420;28;20041;-75
2021/08/12 01:56:46;;;;;;;10.00;5.95;;;;;;;;;;5074548;28;20255;-75
2021/08/12 01:59:13;;;;;;;8.73;6.32;;;;;;;;;;5075280;28;20044;-75
2021/08/12 02:01:40;;;;;;;11.07;6.18;;;;;;;;;;5075465;28;20040;-75
2021/08/12 02:04:09;;;;;;;10.55;6.68;;;;;;;;;;5082403;28;20102;-74
2021/08/12 02:06:37;;;;;;;9.43;5.68;;;;;;;;;;5079820;28;20044;-75
2021/08/12 02:09:05;;;;;;;10.18;5.88;;;;;;;;;;5075115;28;20052;-75
2021/08/12 02:11:36;;;;;;;10.10;6.40;;;;;;;;;;5074941;28;20131;-75
2021/08/12 02:14:04;;;;;;;7.72;6.20;;;;;;;;;;5075294;28;20049;-75
2021/08/12 02:16:30;;;;;;;10.85;6.07;;;;;;;;;;5074554;28;20049;-75
2021/08/12 02:18:58;;;;;;;9.52;6.97;;;;;;;;;;5075184;28;20056;-74
2021/08/12 02:21:30;;;;;;;10.60;6.43;;;;;;;;;;5074601;28;20165;-74
2021/08/12 02:24:03;;;;;;;8.50;5.82;;;;;;;;;;5074800;28;20048;-75
2021/08/12 02:26:35;;;;;;;10.23;6.65;;;;;;;;;;5073919;28;20052;-76
2021/08/12 02:29:03;;;;;;;9.57;6.68;;;;;;;;;;5074659;28;20119;-74
2021/08/12 02:31:31;;;;;;;8.82;7.43;;;;;;;;;;5074415;28;20044;-74
2021/08/12 02:33:59;;;;;;;8.05;6.20;;;;;;;;;;5076597;28;20056;-74
2021/08/12 02:36:27;;;;;;;8.98;6.80;;;;;;;;;;5075773;28;20045;-76
2021/08/12 02:38:54;;;;;;;8.43;6.10;;;;;;;;;;5076264;28;20135;-75
2021/08/12 02:41:23;;;;;;;13.40;7.45;;;;;;;;;;5075965;28;20052;-74
2021/08/12 02:43:53;;;;;;;10.30;7.00;;;;;;;;;;5075469;28;20053;-75
2021/08/12 02:46:22;;;;;;;;;;;;;;;;;;5074298;28;20102;-75
2021/08/12 02:48:50;;;;;;;12.88;7.47;;;;;;;;;;5074091;28;19981;-75
2021/08/12 02:51:18;;;;;;;9.23;7.03;;;;;;;;;;5074385;28;20156;-75
2021/08/12 02:53:45;;;;;;;9.23;6.78;;;;;;;;;;5073959;28;20090;-75
2021/08/12 02:56:14;;;;;;;8.85;6.20;;;;;;;;;;5072384;28;20106;-74
2021/08/12 02:58:42;;;;;;;9.07;6.47;;;;;;;;;;5074158;28;20045;-75
2021/08/12 03:01:12;;;;;;;10.73;6.80;;;;;;;;;;5073715;28;20048;-74
2021/08/12 03:03:42;;;;;;;12.25;6.65;;;;;;;;;;5073980;28;20040;-74
2021/08/12 03:06:12;;;;;;;9.45;7.25;;;;;;;;;;5073589;28;20052;-74
2021/08/12 03:08:39;;;;;;;9.10;6.67;;;;;;;;;;5073839;28;20525;-74
2021/08/12 03:11:10;;;;;;;9.75;7.30;;;;;;;;;;5073762;28;20557;-75
2021/08/12 03:13:37;;;;;;;9.45;7.07;;;;;;;;;;5074016;28;20132;-75
2021/08/12 03:16:06;;;;;;;9.27;7.15;;;;;;;;;;5073272;28;20052;-75
2021/08/12 03:18:34;;;;;;;12.70;7.70;;;;;;;;;;5073583;28;20099;-74
2021/08/12 03:21:06;;;;;;;8.65;7.28;;;;;;;;;;5073671;28;20444;-74
2021/08/12 03:23:33;;;;;;;9.85;7.43;;;;;;;;;;5073607;28;20135;-75
2021/08/12 03:26:00;;;;;;;9.93;7.78;;;;;;;;;;5072545;28;20616;-74
2021/08/12 03:28:26;;;;;;;9.23;7.90;;;;;;;;;;5073286;28;20124;-75
2021/08/12 03:30:53;;;;;;;10.10;7.50;;;;;;;;;;5073699;28;20045;-74
2021/08/12 03:33:20;;;;;;;11.05;7.18;;;;;;;;;;5073199;28;20398;-74
2021/08/12 03:35:48;;;;;;;12.07;7.80;;;;;;;;;;5072659;28;20055;-74
2021/08/12 03:38:15;;;;;;;10.68;7.65;;;;;;;;;;5073412;28;20047;-74
2021/08/12 03:40:42;;;;;;;8.23;6.80;;;;;;;;;;5073250;28;20049;-75
2021/08/12 03:43:08;;;;;;;10.63;7.97;;;;;;;;;;5073589;28;20052;-76
2021/08/12 03:45:35;;;;;;;12.05;7.82;;;;;;;;;;5072920;28;20090;-75
2021/08/12 03:48:02;;;;;;;10.77;8.60;;;;;;;;;;5072942;28;20044;-74
2021/08/12 03:50:29;;;;;;;8.77;7.25;;;;;;;;;;5072926;28;20048;-74
2021/08/12 03:52:57;;;;;;;11.05;8.02;;;;;;;;;;5073004;28;20517;-74
2021/08/12 03:55:24;;;;;;;10.63;7.53;;;;;;;;;;5072004;28;20094;-75
2021/08/12 03:57:51;;;;;;;9.90;7.90;;;;;;;;;;5072818;28;20106;-74
2021/08/12 04:00:18;;;;;;;10.95;7.57;;;;;;;;;;5072992;28;20043;-74
2021/08/12 04:02:45;;;;;;;9.45;7.57;;;;;;;;;;5072796;28;20069;-74
2021/08/12 04:05:12;;;;;;;10.25;8.30;;;;;;;;;;5071989;28;20501;-76
2021/08/12 04:07:39;;;;;;;9.55;7.75;;;;;;;;;;5072193;28;20049;-73
2021/08/12 04:10:08;;;;;;;10.20;8.15;;;;;;;;;;5072391;28;20406;-74
2021/08/12 04:12:35;;;;;;;11.68;8.18;;;;;;;;;;5072604;28;20037;-74
2021/08/12 04:15:02;;;;;;;10.35;7.93;;;;;;;;;;5072038;28;20133;-74
2021/08/12 04:17:28;;;;;;;10.95;7.88;;;;;;;;;;5072227;28;20063;-74
2021/08/12 04:19:55;;;;;;;11.90;8.30;;;;;;;;;;5072500;28;20519;-74
2021/08/12 04:22:22;;;;;;;9.65;7.47;;;;;;;;;;5072272;28;20562;-74
2021/08/12 04:24:49;;;;;;;10.73;8.40;;;;;;;;;;5071614;28;20110;-74
2021/08/12 04:27:17;;;;;;;12.98;8.80;;;;;;;;;;5072187;28;20501;-73
2021/08/12 04:29:44;;;;;;;12.88;8.73;;;;;;;;;;5076049;28;20119;-72
2021/08/12 04:32:11;;;;;;;9.95;8.68;;;;;;;;;;5083488;28;20057;-74
2021/08/12 04:34:37;;;;;;;10.73;8.52;;;;;;;;;;5073090;28;20102;-74
2021/08/12 04:37:05;;;;;;;11.75;8.40;;;;;;;;;;5072312;28;20765;-74
2021/08/12 04:39:31;;;;;;;10.20;8.07;;;;;;;;;;5072374;28;20048;-74
2021/08/12 04:41:58;;;;;;;10.30;7.65;;;;;;;;;;5072332;28;20072;-75
2021/08/12 04:44:26;;;;;;;11.48;8.57;;;;;;;;;;5072057;28;20497;-75
2021/08/12 04:46:53;;;;;;;12.82;8.27;;;;;;;;;;5071695;28;20048;-75
2021/08/12 04:49:20;;;;;;;11.55;8.82;;;;;;;;;;5072045;28;20048;-74
2021/08/12 04:51:48;;;;;;;12.48;9.32;;;;;;;;;;5072077;28;20727;-75
2021/08/12 04:54:14;;;;;;;12.00;9.00;;;;;;;;;;5072114;28;20050;-74
2021/08/12 04:56:41;;;;;;;10.98;9.00;;;;;;;;;;5071395;28;20044;-76
2021/08/12 04:59:08;;;;;;;11.63;8.85;;;;;;;;;;5072068;28;20048;-75
2021/08/12 05:01:36;;;;;;;12.75;10.00;;;;;;;;;;5071753;28;20094;-75
2021/08/12 05:04:03;;;;;;;15.60;10.77;;;;;;;;;;5072241;28;20048;-75
2021/08/12 05:06:30;;;;;;;13.05;9.00;;;;;;;;;;5071501;28;20053;-75
2021/08/12 05:08:56;;;;;;;13.82;10.75;;;;;;;;;;5071998;28;20114;-75
2021/08/12 05:11:23;;;;;;;14.20;9.48;;;;;;;;;;5071731;28;20465;-75
2021/08/12 05:13:51;;;;;;;12.60;9.73;;;;;;;;;;5071852;28;20052;-75
2021/08/12 05:16:17;;;;;;;12.73;9.30;;;;;;;;;;5071569;28;20068;-74
2021/08/12 05:18:46;;;;;;;15.20;11.55;;;;;;;;;;5072089;28;20059;-75
2021/08/12 05:21:12;;;;;;;14.43;11.65;;;;;;;;;;5076603;28;20098;-75
2021/08/12 05:23:39;;;;;;;11.88;9.27;;;;;;;;;;5078712;28;20052;-74
2021/08/12 05:26:06;;;;;;;13.98;9.75;;;;;;;;;;5079126;28;20098;-75
2021/08/12 05:28:32;;;;;;;13.93;10.00;;;;;;;;;;5078786;28;20078;-76
2021/08/12 05:31:02;;;;;;;13.63;10.13;;;;;;;;;;5078387;28;20056;-75
2021/08/12 05:33:29;;;;;;;13.10;10.23;;;;;;;;;;5078276;28;20378;-75
2021/08/12 05:35:57;;;;;;;12.63;9.50;;;;;;;;;;5077800;28;20498;-75
2021/08/12 05:38:24;;;;;;;12.13;9.10;;;;;;;;;;5078442;28;20078;-76
2021/08/12 05:40:50;;;;;;;13.98;10.02;;;;;;;;;;5078604;28;20098;-76
2021/08/12 05:43:17;;;;;;;12.60;9.70;;;;;;;;;;5078332;28;20493;-76
2021/08/12 05:45:44;;;;;;;12.00;10.02;;;;;;;;;;5076858;28;20402;-75
2021/08/12 05:48:11;;;;;;;15.52;11.02;;;;;;;;;;5079374;28;20060;-76
2021/08/12 05:50:43;;;;;;;18.60;10.60;;;;;;;;;;5083983;28;20045;-75
2021/08/12 05:53:11;;;;;;;14.73;10.05;;;;;;;;;;5075471;28;20516;-75
2021/08/12 05:55:38;;;;;;;13.65;9.90;;;;;;;;;;5074722;28;20045;-76
2021/08/12 05:58:05;;;;;;;13.65;10.68;;;;;;;;;;5075423;28;20179;-76
2021/08/12 06:00:32;;;;;;;15.82;10.73;;;;;;;;;;5075855;28;20049;-75
2021/08/12 06:03:06;;;;;;;12.63;10.88;;;;;;;;;;5075707;28;20114;-76
2021/08/12 06:05:33;;;;;;;16.20;10.90;;;;;;;;;;5075434;28;20048;-75
2021/08/12 06:08:01;;;;;;;15.55;10.25;;;;;;;;;;5075447;28;20056;-75
2021/08/12 06:10:30;;;;;;;15.20;10.43;;;;;;;;;;5077579;28;20056;-75
2021/08/12 06:12:58;;;;;;;12.75;10.45;;;;;;;;;;5076186;28;20052;-75
2021/08/12 06:15:25;;;;;;;14.93;11.45;;;;;;;;;;5074452;28;20049;-76
2021/08/12 06:17:52;;;;;;;15.73;10.50;;;;;;;;;;5074316;28;20570;-75
2021/08/12 06:20:19;;;;;;;14.30;9.93;;;;;;;;;;5074660;28;20045;-75
2021/08/12 06:22:46;;;;;;;12.63;10.15;;;;;;;;;;5074845;28;20051;-75
2021/08/12 06:25:14;;;;;;;16.85;10.52;;;;;;;;;;5073881;28;20044;-75
2021/08/12 06:27:42;;;;;;;13.57;10.68;;;;;;;;;;5074812;28;20048;-74
2021/08/12 06:30:11;;;;;;;13.77;10.73;;;;;;;;;;5074364;28;20063;-74
2021/08/12 06:32:38;;;;;;;14.85;11.23;;;;;;;;;;5074712;28;20071;-74
2021/08/12 06:35:06;;;;;;;13.55;9.70;;;;;;;;;;5073789;28;20044;-74
2021/08/12 06:37:42;;;;;;;15.23;10.85;;;;;;;;;;5074361;28;20143;-74
2021/08/12 06:40:10;;;;;;;17.55;10.88;;;;;;;;;;5074188;28;20041;-76
2021/08/12 06:42:37;;;;;;;13.18;10.23;;;;;;;;;;5074497;28;20049;-74
2021/08/12 06:45:07;;;;;;;15.65;11.88;;;;;;;;;;5073437;28;20048;-74
2021/08/12 06:47:34;;;;;;;15.25;11.05;;;;;;;;;;5074450;28;20049;-76
2021/08/12 06:50:01;;;;;;;17.48;12.25;;;;;;;;;;5073900;28;20040;-75
2021/08/12 06:52:28;;;;;;;14.90;10.73;;;;;;;;;;5074096;28;20048;-75
2021/08/12 06:54:55;;;;;;;14.82;10.82;;;;;;;;;;5074842;28;20114;-75
2021/08/12 06:57:21;;;;;;;15.07;11.00;;;;;;;;;;5076501;28;20044;-75
2021/08/12 06:59:48;;;;;;;15.27;11.00;;;;;;;;;;5074021;28;20490;-75
2021/08/12 07:02:16;;;;;;;12.95;9.88;;;;;;;;;;5073836;28;20050;-75
2021/08/12 07:04:43;;;;;;;14.23;10.75;;;;;;;;;;5073151;28;20613;-76
2021/08/12 07:07:10;;;;;;;15.77;10.95;;;;;;;;;;5073807;28;20056;-75
2021/08/12 07:09:37;;;;;;;16.17;11.07;;;;;;;;;;5067023;28;20578;-74
2021/08/12 07:12:04;;;;;;;14.70;11.45;;;;;;;;;;5068363;28;20045;-74
2021/08/12 07:14:31;;;;;;;20.25;11.73;;;;;;;;;;5051891;28;20048;-75
2021/08/12 07:16:58;;;;;;;12.50;10.27;;;;;;;;;;5051188;28;20052;-74
2021/08/12 07:19:27;;;;;;;14.20;10.93;;;;;;;;;;5051482;28;20135;-75
2021/08/12 07:21:54;;;;;;;15.02;10.98;;;;;;;;;;5051877;28;20049;-74
2021/08/12 07:24:21;;;;;;;13.32;11.77;;;;;;;;;;5051607;28;20049;-74
2021/08/12 07:26:48;;;;;;;14.82;11.15;;;;;;;;;;5050963;28;20466;-75
2021/08/12 07:29:15;;;;;;;14.05;10.13;;;;;;;;;;5051552;28;20049;-75
2021/08/12 07:31:42;;;;;;;15.20;10.70;;;;;;;;;;5051442;28;20110;-74
2021/08/12 07:34:08;;;;;;;11.80;10.30;;;;;;;;;;5051340;28;20045;-75
2021/08/12 07:36:38;;;;;;;12.32;9.82;;;;;;;;;;5050565;28;20528;-75
2021/08/12 07:39:06;;;;;;;12.40;10.30;;;;;;;;;;5053450;28;20060;-77
2021/08/12 07:41:33;;;;;;;15.52;10.20;;;;;;;;;;5051867;28;20115;-78
2021/08/12 07:44:01;;;;;;;16.20;10.43;;;;;;;;;;5051935;28;20052;-76
2021/08/12 07:46:28;;;;;;;13.40;9.80;;;;;;;;;;5057216;28;20490;-75
2021/08/12 07:48:55;;;;;;;14.10;10.07;;;;;;;;;;5052164;28;20049;-74
2021/08/12 07:51:23;;;;;;;12.57;9.93;;;;;;;;;;5051871;28;20053;-74
2021/08/12 07:53:51;;;;;;;14.60;10.73;;;;;;;;;;5051855;28;20049;-75
2021/08/12 07:56:18;;;;;;;12.00;9.80;;;;;;;;;;5054788;28;20505;-74
2021/08/12 07:58:45;;;;;;;12.90;10.07;;;;;;;;;;5059662;28;20041;-74
2021/08/12 08:01:13;;;;;;;13.82;10.52;;;;;;;;;;5067236;28;20041;-75
2021/08/12 08:03:40;;;;;;;12.25;10.57;;;;;;;;;;5071253;28;20098;-74
2021/08/12 08:06:07;;;;;;;15.43;10.73;;;;;;;;;;5070553;28;20086;-75
2021/08/12 08:08:34;;;;;;;11.35;9.35;;;;;;;;;;5070975;28;20436;-76
2021/08/12 08:11:02;;;;;;;12.07;9.80;;;;;;;;;;5070609;28;20063;-75
2021/08/12 08:13:29;;;;;;;16.60;10.60;;;;;;;;;;5070336;28;20130;-74
2021/08/12 08:15:57;;;;;;;15.13;9.43;;;;;;;;;;5058793;28;20040;-75
2021/08/12 08:18:24;;;;;;;13.05;9.55;;;;;;;;;;5082717;22;20063;-77
2021/08/12 08:20:51;;;;;;;15.60;10.60;;;;;;;;;;5087378;28;20097;-78
2021/08/12 08:23:19;;;;;;;15.93;10.30;;;;;;;;;;5081687;28;20040;-79
2021/08/12 08:25:46;;;;;;;12.20;8.77;;;;;;;;;;5085782;28;20052;-79
2021/08/12 08:28:14;;;;;;;14.00;9.57;;;;;;;;;;5084111;28;20456;-79
2021/08/12 08:30:41;;;;;;;12.30;9.82;;;;;;;;;;5096001;28;20043;-78
2021/08/12 08:33:11;;;;;;;12.43;9.45;;;;;;;;;;5092577;28;20071;-78
2021/08/12 08:35:38;;;;;;;12.13;10.20;;;;;;;;;;5092496;28;20048;-78
2021/08/12 08:38:05;;;;;;;13.73;10.45;;;;;;;;;;5093036;28;20040;-77
2021/08/12 08:40:33;;;;;;;15.18;9.73;;;;;;;;;;5107082;28;20073;-79
2021/08/12 08:43:01;;;;;;;10.52;9.30;;;;;;;;;;5095716;28;20079;-78
2021/08/12 08:45:30;;;;;;;13.25;10.32;;;;;;;;;;5111281;28;20032;-77
2021/08/12 08:47:58;;;;;;;12.63;9.75;;;;;;;;;;5118244;28;20060;-77
2021/08/12 08:50:31;;;;;;;16.17;9.93;;;;;;;;;;5114925;28;20051;-77
2021/08/12 08:52:58;;;;;;;13.20;10.25;;;;;;;;;;5108626;28;20044;-78
2021/08/12 08:55:25;;;;;;;13.35;10.38;;;;;;;;;;5087427;28;20060;-80
2021/08/12 08:57:54;;;;;;;16.23;13.77;;;;;;;;;;5093452;28;20055;-79
2021/08/12 09:00:21;;;;;;;13.82;11.00;;;;;;;;;;5096119;28;20051;-79
2021/08/12 09:02:50;;;;;;;12.43;10.55;;;;;;;;;;5092933;28;20044;-79
2021/08/12 09:05:17;;;;;;;13.48;12.00;;;;;;;;;;5092125;28;20097;-79
2021/08/12 09:07:45;;;;;;;14.93;11.55;;;;;;;;;;5093148;28;20048;-79
2021/08/12 09:10:13;;;;;;;14.55;11.43;;;;;;;;;;5093536;28;20264;-79
2021/08/12 09:12:42;;;;;;;15.27;10.70;;;;;;;;;;5093063;28;20048;-79
2021/08/12 09:15:12;;;;;;;15.00;11.40;;;;;;;;;;5092033;28;20485;-78
2021/08/12 09:17:40;;;;;;;13.38;9.85;;;;;;;;;;5100873;28;20078;-81
2021/08/12 09:20:14;;;;;;;16.95;10.75;;;;;;;;;;5103786;28;20070;-78
2021/08/12 09:23:07;;;;;;;19.13;16.17;;;;;;;;;;5092529;28;20040;-79
2021/08/12 09:25:41;;;;;;;15.23;10.32;;;;;;;;;;5077627;28;20094;-77
2021/08/12 09:28:16;;;;;;;10.68;8.75;;;;;;;;;;5092473;28;20096;-78
2021/08/12 09:30:45;;;;;;;16.83;10.23;;;;;;;;;;5092139;28;20059;-78
2021/08/12 09:33:19;;;;;;;13.70;10.60;;;;;;;;;;5092700;28;20497;-78
2021/08/12 09:35:47;;;;;;;12.65;9.55;;;;;;;;;;5092524;28;20048;-78
2021/08/12 09:38:15;;;;;;;19.85;15.48;;;;;;;;;;5092114;28;20051;-78
2021/08/12 09:40:43;;;;;;;17.30;12.75;;;;;;;;;;5094533;28;20112;-80
2021/08/12 09:43:11;;;;;;;15.07;10.68;;;;;;;;;;5098617;28;20439;-80
2021/08/12 09:45:41;;;;;;;17.25;12.27;;;;;;;;;;5097969;28;20044;-79
2021/08/12 09:48:14;;;;;;;19.45;12.10;;;;;;;;;;5098208;28;20044;-80
2021/08/12 09:50:41;;;;;;;13.02;10.38;;;;;;;;;;5099955;28;20052;-80
2021/08/12 09:53:18;;;;;;;12.82;10.32;;;;;;;;;;5098653;28;20040;-79
2021/08/12 09:55:45;;;;;;;16.95;10.65;;;;;;;;;;5097077;28;20466;-79
2021/08/12 09:58:13;;;;;;;16.67;9.98;;;;;;;;;;5099263;28;20044;-80
2021/08/12 10:00:42;;;;;;;19.17;10.77;;;;;;;;;;5100023;28;20070;-80
2021/08/12 10:03:25;;;;;;;12.43;10.35;;;;;;;;;;5099794;28;20048;-81
2021/08/12 10:05:53;;;;;;;13.63;9.98;;;;;;;;;;5101340;28;20138;-81
2021/08/12 10:08:28;;;;;;;13.25;10.18;;;;;;;;;;5103205;28;20458;-80
2021/08/12 10:10:56;;;;;;;11.85;9.10;;;;;;;;;;5109737;28;20435;-80
2021/08/12 10:13:23;;;;;;;10.82;9.50;;;;;;;;;;5105938;28;20048;-81
2021/08/12 10:15:52;;;;;;;12.60;9.30;;;;;;;;;;5102709;28;20055;-81
2021/08/12 10:18:20;;;;;;;11.30;9.57;;;;;;;;;;5102153;28;20055;-81
2021/08/12 10:20:48;;;;;;;11.90;9.20;;;;;;;;;;5102357;28;20124;-80
2021/08/12 10:23:16;;;;;;;11.77;9.35;;;;;;;;;;5100866;28;20059;-80
2021/08/12 10:25:57;;;;;;;11.05;9.23;;;;;;;;;;5101973;28;20052;-81
2021/08/12 10:28:25;;;;;;;16.08;10.20;;;;;;;;;;5102266;28;20150;-81
2021/08/12 10:30:53;;;;;;;12.50;10.35;;;;;;;;;;5102558;28;20055;-81
2021/08/12 10:33:20;;;;;;;12.57;10.07;;;;;;;;;;5102408;28;20048;-81
2021/08/12 10:35:48;;;;;;;15.20;13.60;;;;;;;;;;5103511;28;20062;-79
2021/08/12 10:38:15;;;;;;;12.73;10.20;;;;;;;;;;5119542;28;20044;-78
2021/08/12 10:40:45;;;;;;;12.73;9.77;;;;;;;;;;5109884;28;20044;-81
2021/08/12 10:43:13;;;;;;;;;;;;;;;;;;5102826;28;20050;-81
2021/08/12 10:45:40;;;;;;;13.50;9.82;;;;;;;;;;5104229;28;19973;-78
2021/08/12 10:48:19;;;;;;;11.48;9.07;;;;;;;;;;5101991;28;20558;-81
2021/08/12 10:51:01;;;;;;;10.40;9.23;;;;;;;;;;5107588;28;20042;-76
2021/08/12 10:53:28;;;;;;;11.95;9.57;;;;;;;;;;5110504;28;20093;-81
2021/08/12 10:56:13;;;;;;;13.23;11.88;;;;;;;;;;5104021;28;20048;-82
2021/08/12 10:58:45;;;;;;;13.15;10.45;;;;;;;;;;5104351;28;20067;-80
2021/08/12 11:01:13;;;;;;;12.82;10.63;;;;;;;;;;5103672;28;20101;-80
2021/08/12 11:03:46;;;;;;;15.05;12.85;;;;;;;;;;5109723;28;20039;-80
2021/08/12 11:06:16;;;;;;;11.30;9.20;;;;;;;;;;5102029;28;20055;-81
2021/08/12 11:09:01;;;;;;;10.75;9.35;;;;;;;;;;5101446;28;20044;-80
2021/08/12 11:11:58;;;;;;;11.38;9.52;;;;;;;;;;5101810;28;20097;-80
2021/08/12 11:14:50;;;;;;;10.27;9.18;;;;;;;;;;5081668;28;20084;-81
2021/08/12 11:17:18;;;;;;;10.27;9.18;;;;;;;;;;5080363;28;20057;-80
2021/08/12 11:19:45;;;;;;;12.43;9.82;;;;;;;;;;5080904;28;20056;-80
2021/08/12 11:22:35;;;;;;;12.30;9.70;;;;;;;;;;5081045;28;20471;-81
2021/08/12 11:25:05;;;;;;;11.23;9.52;;;;;;;;;;5081322;28;20045;-79
2021/08/12 11:27:44;;;;;;;12.13;9.75;;;;;;;;;;5084412;28;20106;-81
2021/08/12 11:30:39;;;;;;;11.65;10.10;;;;;;;;;;5081120;28;20052;-81
2021/08/12 11:33:32;;;;;;;13.13;9.48;;;;;;;;;;5081233;28;20094;-82
2021/08/12 11:36:20;;;;;;;11.00;9.38;;;;;;;;;;5086470;28;20033;-80
2021/08/12 11:38:49;;;;;;;10.57;8.75;;;;;;;;;;5097855;28;20052;-77
2021/08/12 11:41:17;;;;;;;9.90;8.90;;;;;;;;;;5098329;28;20040;-80
2021/08/12 11:43:46;;;;;;;11.63;9.75;;;;;;;;;;5097515;28;20048;-78
2021/08/12 11:46:13;;;;;;;11.20;9.47;;;;;;;;;;5097167;28;20059;-78
2021/08/12 11:48:41;;;;;;;10.88;9.45;;;;;;;;;;5097467;28;20032;-78
2021/08/12 11:51:08;;;;;;;10.65;9.30;;;;;;;;;;5098097;28;20048;-77
2021/08/12 11:53:46;;;;;;;10.88;9.65;;;;;;;;;;5098195;28;20047;-77
2021/08/12 11:56:19;;;;;;;10.43;9.32;;;;;;;;;;5095268;28;20048;-79
2021/08/12 11:58:49;;;;;;;10.75;9.73;;;;;;;;;;5096848;28;20036;-79
2021/08/12 12:01:18;;;;;;;12.38;10.63;;;;;;;;;;5101202;28;20051;-76
2021/08/12 12:03:48;;;;;;;11.95;10.73;;;;;;;;;;5118550;28;20081;-77
2021/08/12 12:06:35;;;;;;;12.55;9.43;;;;;;;;;;5117883;28;20062;-76
2021/08/12 12:09:25;;;;;;;11.90;9.98;;;;;;;;;;5118658;28;20079;-76
2021/08/12 12:11:54;;;;;;;12.70;10.00;;;;;;;;;;5118623;28;20055;-76
2021/08/12 12:14:24;;;;;;;10.82;9.00;;;;;;;;;;5118601;28;20039;-76
2021/08/12 12:17:22;;;;;;;11.23;9.32;;;;;;;;;;5118093;28;20036;-76
2021/08/12 12:20:10;;;;;;;12.88;9.70;;;;;;;;;;5056734;28;20116;-79
2021/08/12 12:22:39;;;;;;;10.70;9.60;;;;;;;;;;5111323;28;20036;-78
2021/08/12 12:25:09;;;;;;;10.52;9.38;;;;;;;;;;5108054;28;20277;-80
2021/08/12 12:27:36;;;;;;;13.27;9.32;;;;;;;;;;5098724;28;20242;-80
2021/08/12 12:30:15;;;;;;;12.18;9.98;;;;;;;;;;5100954;28;20040;-80
2021/08/12 12:32:44;;;;;;;11.57;9.25;;;;;;;;;;5104825;28;20074;-79
2021/08/12 12:35:13;;;;;;;13.25;9.32;;;;;;;;;;5101608;28;20052;-79
2021/08/12 12:37:42;;;;;;;11.13;9.25;;;;;;;;;;5099727;28;20055;-78
2021/08/12 12:40:18;;;;;;;11.80;8.95;;;;;;;;;;5097765;28;20155;-78
2021/08/12 12:42:45;;;;;;;11.00;8.93;;;;;;;;;;5098808;28;20044;-80
2021/08/12 12:45:14;;;;;;;11.32;9.60;;;;;;;;;;5095126;28;20051;-78
2021/08/12 12:47:41;;;;;;;12.10;9.50;;;;;;;;;;5097382;28;20125;-80
2021/08/12 12:50:15;;;;;;;10.55;9.43;;;;;;;;;;5102202;28;20047;-79
2021/08/12 12:53:09;;;;;;;9.65;8.73;;;;;;;;;;5100349;28;20086;-79
2021/08/12 12:55:38;;;;;;;11.95;9.13;;;;;;;;;;5101004;28;20078;-79
2021/08/12 12:58:18;;;;;;;18.25;10.13;;;;;;;;;;5100080;28;20044;-81
2021/08/12 13:00:57;;;;;;;10.80;9.52;;;;;;;;;;5099844;28;20083;-81
2021/08/12 13:03:32;;;;;;;10.15;8.68;;;;;;;;;;5079387;28;20091;-81
2021/08/12 13:06:01;;;;;;;10.48;8.77;;;;;;;;;;5078398;28;20044;-81
2021/08/12 13:08:39;;;;;;;12.73;9.63;;;;;;;;;;5087241;28;20052;-81
2021/08/12 13:11:08;;;;;;;13.65;9.43;;;;;;;;;;5080412;28;20056;-81
2021/08/12 13:13:36;;;;;;;11.63;9.20;;;;;;;;;;5095838;28;20074;-81
2021/08/12 13:16:05;;;;;;;10.98;9.15;;;;;;;;;;5095253;28;20425;-79
2021/08/12 13:18:57;;;;;;;11.27;9.18;;;;;;;;;;5096173;28;20047;-79
2021/08/12 13:21:26;;;;;;;10.48;9.32;;;;;;;;;;5100610;28;20044;-79
2021/08/12 13:23:53;;;;;;;9.38;8.43;;;;;;;;;;5094760;28;20048;-81
2021/08/12 13:26:28;;;;;;;12.68;9.48;;;;;;;;;;5100175;28;20234;-82
2021/08/12 13:29:18;;;;;;;10.68;8.82;;;;;;;;;;5099629;28;20058;-80
2021/08/12 13:31:49;;;;;;;10.25;8.57;;;;;;;;;;5097748;28;20513;-80
2021/08/12 13:34:16;;;;;;;10.18;9.13;;;;;;;;;;5101304;28;20052;-79
2021/08/12 13:36:44;;;;;;;11.90;9.55;;;;;;;;;;5100743;28;20111;-80
2021/08/12 13:39:11;;;;;;;11.40;9.00;;;;;;;;;;5102261;28;20414;-79
2021/08/12 13:41:50;;;;;;;11.80;9.20;;;;;;;;;;5106690;28;20052;-79
2021/08/12 13:44:17;;;;;;;10.27;8.73;;;;;;;;;;5105161;28;20044;-80
2021/08/12 13:46:44;;;;;;;10.38;9.27;;;;;;;;;;5098703;28;20051;-79
2021/08/12 13:49:12;;;;;;;9.75;8.75;;;;;;;;;;5098279;28;20055;-79
2021/08/12 13:51:39;;;;;;;12.23;9.10;;;;;;;;;;5098941;28;20050;-79
2021/08/12 13:54:06;;;;;;;12.13;8.77;;;;;;;;;;5102647;28;20044;-80
2021/08/12 13:56:33;;;;;;;13.88;9.50;;;;;;;;;;5104712;28;20044;-80
2021/08/12 13:59:00;;;;;;;12.73;8.80;;;;;;;;;;5105104;28;20044;-80
2021/08/12 14:01:30;;;;;;;11.10;9.20;;;;;;;;;;5103218;28;20048;-80
2021/08/12 14:03:57;;;;;;;10.48;9.48;;;;;;;;;;5104285;28;20079;-81
2021/08/12 14:06:25;;;;;;;9.90;8.90;;;;;;;;;;5099420;28;20048;-78
2021/08/12 14:08:52;;;;;;;11.48;8.90;;;;;;;;;;5100777;28;20048;-79
2021/08/12 14:11:20;;;;;;;10.88;9.77;;;;;;;;;;5098778;28;20573;-80
2021/08/12 14:13:47;;;;;;;10.57;9.48;;;;;;;;;;5101324;28;20101;-79
2021/08/12 14:16:17;;;;;;;11.48;9.15;;;;;;;;;;5101183;28;20044;-80
2021/08/12 14:18:44;;;;;;;10.18;9.10;;;;;;;;;;5102820;28;20048;-80
2021/08/12 14:21:11;;;;;;;10.07;8.60;;;;;;;;;;5104345;28;20075;-79
2021/08/12 14:23:40;;;;;;;10.52;8.32;;;;;;;;;;5104948;28;20052;-80
2021/08/12 14:26:15;;;;;;;9.50;8.35;;;;;;;;;;5100838;28;20052;-81
2021/08/12 14:28:42;;;;;;;20.80;12.07;;;;;;;;;;5104418;28;20131;-80
2021/08/12 14:31:10;;;;;;;11.38;9.35;;;;;;;;;;5103477;28;20642;-80
2021/08/12 14:33:38;;;;;;;15.80;10.10;;;;;;;;;;5100856;28;20076;-79
2021/08/12 14:36:06;;;;;;;13.05;10.40;;;;;;;;;;5102419;28;20065;-79
2021/08/12 14:38:34;;;;;;;15.25;11.32;;;;;;;;;;5104663;28;20112;-80
2021/08/12 14:41:06;;;;;;;13.77;11.27;;;;;;;;;;5105236;28;20040;-79
2021/08/12 14:43:34;;;;;;;18.65;12.27;;;;;;;;;;5103485;28;20056;-83